sensor_id;sensor_type;location;lat;lon;timestamp;temperature;humidity
18868;DHT22;9563;49.240;9.088;2022-12-07T00:01:06;4.00;99.90
18868;DHT22;9563;49.240;9.088;2022-12-07T00:03:33;3.90;99.90
18868;DHT22;9563;49.240;9.088;2022-12-07T00:06:02;4.00;99.90
18868;DHT22;9563;49.240;9.088;2022-12-07T00:08:30;4.00;99.90
18868;DHT22;9563;49.240;9.088;2022-12-07T00:11:01;4.10;99.90
18868;DHT22;9563;49.240;9.088;2022-12-07T00:13:28;4.10;99.90
18868;DHT22;9563;49.240;9.088;2022-12-07T00:16:00;4.10;99.90
18868;DHT22;9563;49.240;9.088;2022-12-07T00:18:27;4.20;99.90
18868;DHT22;9563;49.240;9.088;2022-12-07T00:20:59;4.20;99.90
18868;DHT22;9563;49.240;9.088;2022-12-07T00:23:26;4.20;99.90
18868;DHT22;9563;49.240;9.088;2022-12-07T00:25:52;4.20;99.90
18868;DHT22;9563;49.240;9.088;2022-12-07T00:28:20;4.30;99.90
18868;DHT22;9563;49.240;9.088;2022-12-07T00:30:46;4.30;99.90
18868;DHT22;9563;49.240;9.088;2022-12-07T00:33:15;4.30;99.90
18868;DHT22;9563;49.240;9.088;2022-12-07T00:35:41;4.30;99.90
18868;DHT22;9563;49.240;9.088;2022-12-07T00:38:08;4.30;99.90
18868;DHT22;9563;49.240;9.088;2022-12-07T00:40:35;4.30;99.90
18868;DHT22;9563;49.240;9.088;2022-12-07T00:43:02;4.20;99.90
18868;DHT22;9563;49.240;9.088;2022-12-07T00:45:29;4.20;99.90
18868;DHT22;9563;49.240;9.088;2022-12-07T00:47:56;4.20;99.90
18868;DHT22;9563;49.240;9.088;2022-12-07T00:50:25;4.20;99.90
18868;DHT22;9563;49.240;9.088;2022-12-07T00:52:51;4.20;99.90
18868;DHT22;9563;49.240;9.088;2022-12-07T00:55:18;4.20;99.90
18868;DHT22;9563;49.240;9.088;2022-12-07T00:57:45;4.20;99.90
18868;DHT22;9563;49.240;9.088;2022-12-07T01:00:12;4.20;99.90
18868;DHT22;9563;49.240;9.088;2022-12-07T01:02:39;4.20;99.90
18868;DHT22;9563;49.240;9.088;2022-12-07T01:05:07;4.30;99.90
18868;DHT22;9563;49.240;9.088;2022-12-07T01:07:35;4.20;99.90
18868;DHT22;9563;49.240;9.088;2022-12-07T01:10:03;4.10;99.90
18868;DHT22;9563;49.240;9.088;2022-12-07T01:12:30;4.10;99.90
18868;DHT22;9563;49.240;9.088;2022-12-07T01:14:56;4.20;99.90
18868;DHT22;9563;49.240;9.088;2022-12-07T01:17:23;4.20;99.90
18868;DHT22;9563;49.240;9.088;2022-12-07T01:19:50;4.20;99.90
18868;DHT22;9563;49.240;9.088;2022-12-07T01:22:17;4.20;99.90
18868;DHT22;9563;49.240;9.088;2022-12-07T01:24:46;4.20;99.90
18868;DHT22;9563;49.240;9.088;2022-12-07T01:27:13;4.10;99.90
18868;DHT22;9563;49.240;9.088;2022-12-07T01:29:40;4.10;99.90
18868;DHT22;9563;49.240;9.088;2022-12-07T01:32:07;4.10;99.90
18868;DHT22;9563;49.240;9.088;2022-12-07T01:34:34;4.10;99.90
18868;DHT22;9563;49.240;9.088;2022-12-07T01:37:00;4.10;99.90
18868;DHT22;9563;49.240;9.088;2022-12-07T01:39:27;4.10;99.90
18868;DHT22;9563;49.240;9.088;2022-12-07T01:41:56;4.20;99.90
18868;DHT22;9563;49.240;9.088;2022-12-07T01:44:24;4.20;99.90
18868;DHT22;9563;49.240;9.088;2022-12-07T01:46:53;4.20;99.90
18868;DHT22;9563;49.240;9.088;2022-12-07T01:49:26;4.20;99.90
18868;DHT22;9563;49.240;9.088;2022-12-07T01:51:58;4.30;99.90
18868;DHT22;9563;49.240;9.088;2022-12-07T01:54:27;4.20;99.90
18868;DHT22;9563;49.240;9.088;2022-12-07T01:56:56;4.20;99.90
18868;DHT22;9563;49.240;9.088;2022-12-07T01:59:24;4.20;99.90
18868;DHT22;9563;49.240;9.088;2022-12-07T02:01:52;4.30;99.90
18868;DHT22;9563;49.240;9.088;2022-12-07T02:04:21;4.30;99.90
18868;DHT22;9563;49.240;9.088;2022-12-07T02:06:48;4.30;99.90
18868;DHT22;9563;49.240;9.088;2022-12-07T02:09:16;4.20;99.90
18868;DHT22;9563;49.240;9.088;2022-12-07T02:11:43;4.30;99.90
18868;DHT22;9563;49.240;9.088;2022-12-07T02:14:11;4.30;99.90
18868;DHT22;9563;49.240;9.088;2022-12-07T02:16:46;4.40;99.90
18868;DHT22;9563;49.240;9.088;2022-12-07T02:19:30;4.20;99.90
18868;DHT22;9563;49.240;9.088;2022-12-07T02:22:05;4.20;99.90
18868;DHT22;9563;49.240;9.088;2022-12-07T02:24:48;4.30;99.90
18868;DHT22;9563;49.240;9.088;2022-12-07T02:27:37;4.30;99.90
18868;DHT22;9563;49.240;9.088;2022-12-07T02:30:07;4.40;99.90
18868;DHT22;9563;49.240;9.088;2022-12-07T02:32:44;4.40;99.90
18868;DHT22;9563;49.240;9.088;2022-12-07T02:35:17;4.50;99.90
18868;DHT22;9563;49.240;9.088;2022-12-07T02:37:53;4.50;99.90
18868;DHT22;9563;49.240;9.088;2022-12-07T02:40:27;4.40;99.90
18868;DHT22;9563;49.240;9.088;2022-12-07T02:42:58;4.30;99.90
18868;DHT22;9563;49.240;9.088;2022-12-07T02:45:31;4.10;99.90
18868;DHT22;9563;49.240;9.088;2022-12-07T02:47:59;4.00;99.90
18868;DHT22;9563;49.240;9.088;2022-12-07T02:50:27;4.00;99.90
18868;DHT22;9563;49.240;9.088;2022-12-07T02:52:54;3.90;99.90
18868;DHT22;9563;49.240;9.088;2022-12-07T02:55:26;3.90;99.90
18868;DHT22;9563;49.240;9.088;2022-12-07T02:58:06;4.00;99.90
18868;DHT22;9563;49.240;9.088;2022-12-07T03:00:48;4.00;99.90
18868;DHT22;9563;49.240;9.088;2022-12-07T03:03:18;4.10;99.90
18868;DHT22;9563;49.240;9.088;2022-12-07T03:05:58;4.10;99.90
18868;DHT22;9563;49.240;9.088;2022-12-07T03:08:35;4.00;99.90
18868;DHT22;9563;49.240;9.088;2022-12-07T03:11:04;4.00;99.90
18868;DHT22;9563;49.240;9.088;2022-12-07T03:13:34;4.10;99.90
18868;DHT22;9563;49.240;9.088;2022-12-07T03:16:09;4.10;99.90
18868;DHT22;9563;49.240;9.088;2022-12-07T03:18:42;4.10;99.90
18868;DHT22;9563;49.240;9.088;2022-12-07T03:21:13;4.00;99.90
18868;DHT22;9563;49.240;9.088;2022-12-07T03:23:44;3.90;99.90
18868;DHT22;9563;49.240;9.088;2022-12-07T03:26:14;4.00;99.90
18868;DHT22;9563;49.240;9.088;2022-12-07T03:28:46;4.00;99.90
18868;DHT22;9563;49.240;9.088;2022-12-07T03:31:18;4.10;99.90
18868;DHT22;9563;49.240;9.088;2022-12-07T03:33:49;4.00;99.90
18868;DHT22;9563;49.240;9.088;2022-12-07T03:36:23;4.00;99.90
18868;DHT22;9563;49.240;9.088;2022-12-07T03:38:56;3.90;99.90
18868;DHT22;9563;49.240;9.088;2022-12-07T03:41:26;3.90;99.90
18868;DHT22;9563;49.240;9.088;2022-12-07T03:43:54;3.90;99.90
18868;DHT22;9563;49.240;9.088;2022-12-07T03:46:29;3.90;99.90
18868;DHT22;9563;49.240;9.088;2022-12-07T03:49:02;3.90;99.90
18868;DHT22;9563;49.240;9.088;2022-12-07T03:51:38;3.90;99.90
18868;DHT22;9563;49.240;9.088;2022-12-07T03:54:10;4.00;99.90
18868;DHT22;9563;49.240;9.088;2022-12-07T03:56:38;4.10;99.90
18868;DHT22;9563;49.240;9.088;2022-12-07T03:59:06;4.10;99.90
18868;DHT22;9563;49.240;9.088;2022-12-07T04:01:35;4.20;99.90
18868;DHT22;9563;49.240;9.088;2022-12-07T04:04:02;4.20;99.90
18868;DHT22;9563;49.240;9.088;2022-12-07T04:06:29;4.20;99.90
18868;DHT22;9563;49.240;9.088;2022-12-07T04:08:56;4.10;99.90
18868;DHT22;9563;49.240;9.088;2022-12-07T04:11:23;4.20;99.90
18868;DHT22;9563;49.240;9.088;2022-12-07T04:13:50;4.10;99.90
18868;DHT22;9563;49.240;9.088;2022-12-07T04:16:36;4.20;99.90
18868;DHT22;9563;49.240;9.088;2022-12-07T04:19:03;4.20;99.90
18868;DHT22;9563;49.240;9.088;2022-12-07T04:21:30;4.30;99.90
18868;DHT22;9563;49.240;9.088;2022-12-07T04:23:57;4.30;99.90
18868;DHT22;9563;49.240;9.088;2022-12-07T04:26:24;4.30;99.90
18868;DHT22;9563;49.240;9.088;2022-12-07T04:28:51;4.30;99.90
18868;DHT22;9563;49.240;9.088;2022-12-07T04:31:17;4.20;99.90
18868;DHT22;9563;49.240;9.088;2022-12-07T04:33:46;4.20;99.90
18868;DHT22;9563;49.240;9.088;2022-12-07T04:36:13;4.30;99.90
18868;DHT22;9563;49.240;9.088;2022-12-07T04:38:39;4.30;99.90
18868;DHT22;9563;49.240;9.088;2022-12-07T04:41:07;4.20;99.90
18868;DHT22;9563;49.240;9.088;2022-12-07T04:43:35;4.10;99.90
18868;DHT22;9563;49.240;9.088;2022-12-07T04:46:02;4.10;99.90
18868;DHT22;9563;49.240;9.088;2022-12-07T04:48:29;4.00;99.90
18868;DHT22;9563;49.240;9.088;2022-12-07T04:50:58;4.00;99.90
18868;DHT22;9563;49.240;9.088;2022-12-07T04:53:24;4.00;99.90
18868;DHT22;9563;49.240;9.088;2022-12-07T04:55:51;3.90;99.90
18868;DHT22;9563;49.240;9.088;2022-12-07T04:58:18;3.90;99.90
18868;DHT22;9563;49.240;9.088;2022-12-07T05:00:45;3.80;99.90
18868;DHT22;9563;49.240;9.088;2022-12-07T05:03:12;3.80;99.90
18868;DHT22;9563;49.240;9.088;2022-12-07T05:05:40;3.70;99.90
18868;DHT22;9563;49.240;9.088;2022-12-07T05:08:08;3.70;99.90
18868;DHT22;9563;49.240;9.088;2022-12-07T05:10:35;3.60;99.90
18868;DHT22;9563;49.240;9.088;2022-12-07T05:13:02;3.60;99.90
18868;DHT22;9563;49.240;9.088;2022-12-07T05:15:29;3.60;99.90
18868;DHT22;9563;49.240;9.088;2022-12-07T05:17:56;3.60;99.90
18868;DHT22;9563;49.240;9.088;2022-12-07T05:20:23;3.60;99.90
18868;DHT22;9563;49.240;9.088;2022-12-07T05:22:49;3.60;99.90
18868;DHT22;9563;49.240;9.088;2022-12-07T05:25:18;3.60;99.90
18868;DHT22;9563;49.240;9.088;2022-12-07T05:27:45;3.60;99.90
18868;DHT22;9563;49.240;9.088;2022-12-07T05:30:13;3.70;99.90
18868;DHT22;9563;49.240;9.088;2022-12-07T05:32:40;3.70;99.90
18868;DHT22;9563;49.240;9.088;2022-12-07T05:35:07;3.70;99.90
18868;DHT22;9563;49.240;9.088;2022-12-07T05:37:34;3.70;99.90
18868;DHT22;9563;49.240;9.088;2022-12-07T05:40:01;3.60;99.90
18868;DHT22;9563;49.240;9.088;2022-12-07T05:42:29;3.60;99.90
18868;DHT22;9563;49.240;9.088;2022-12-07T05:44:56;3.60;99.90
18868;DHT22;9563;49.240;9.088;2022-12-07T05:47:23;3.60;99.90
18868;DHT22;9563;49.240;9.088;2022-12-07T05:49:50;3.60;99.90
18868;DHT22;9563;49.240;9.088;2022-12-07T05:52:17;3.60;99.90
18868;DHT22;9563;49.240;9.088;2022-12-07T05:54:44;3.60;99.90
18868;DHT22;9563;49.240;9.088;2022-12-07T05:57:11;3.50;99.90
18868;DHT22;9563;49.240;9.088;2022-12-07T05:59:39;3.50;99.90
18868;DHT22;9563;49.240;9.088;2022-12-07T06:02:07;3.50;99.90
18868;DHT22;9563;49.240;9.088;2022-12-07T06:04:37;3.60;99.90
18868;DHT22;9563;49.240;9.088;2022-12-07T06:07:04;3.60;99.90
18868;DHT22;9563;49.240;9.088;2022-12-07T06:09:32;3.70;99.90
18868;DHT22;9563;49.240;9.088;2022-12-07T06:11:59;3.80;99.90
18868;DHT22;9563;49.240;9.088;2022-12-07T06:14:45;3.80;99.90
18868;DHT22;9563;49.240;9.088;2022-12-07T06:17:13;3.80;99.90
18868;DHT22;9563;49.240;9.088;2022-12-07T06:19:40;3.90;99.90
18868;DHT22;9563;49.240;9.088;2022-12-07T06:22:08;3.90;99.90
18868;DHT22;9563;49.240;9.088;2022-12-07T06:24:35;4.00;99.90
18868;DHT22;9563;49.240;9.088;2022-12-07T06:27:03;4.00;99.90
18868;DHT22;9563;49.240;9.088;2022-12-07T06:29:30;4.10;99.90
18868;DHT22;9563;49.240;9.088;2022-12-07T06:31:58;4.10;99.90
18868;DHT22;9563;49.240;9.088;2022-12-07T06:34:26;4.20;99.90
18868;DHT22;9563;49.240;9.088;2022-12-07T06:36:53;4.20;99.90
18868;DHT22;9563;49.240;9.088;2022-12-07T06:39:22;4.20;99.90
18868;DHT22;9563;49.240;9.088;2022-12-07T06:41:49;4.30;99.90
18868;DHT22;9563;49.240;9.088;2022-12-07T06:44:17;4.30;99.90
18868;DHT22;9563;49.240;9.088;2022-12-07T06:46:44;4.40;99.90
18868;DHT22;9563;49.240;9.088;2022-12-07T06:49:13;4.40;99.90
18868;DHT22;9563;49.240;9.088;2022-12-07T06:51:40;4.30;99.90
18868;DHT22;9563;49.240;9.088;2022-12-07T06:54:07;4.20;99.90
18868;DHT22;9563;49.240;9.088;2022-12-07T06:56:34;4.20;99.90
18868;DHT22;9563;49.240;9.088;2022-12-07T06:59:02;4.20;99.90
18868;DHT22;9563;49.240;9.088;2022-12-07T07:01:31;4.20;99.90
18868;DHT22;9563;49.240;9.088;2022-12-07T07:03:58;4.10;99.90
18868;DHT22;9563;49.240;9.088;2022-12-07T07:06:27;4.10;99.90
18868;DHT22;9563;49.240;9.088;2022-12-07T07:08:54;4.20;99.90
18868;DHT22;9563;49.240;9.088;2022-12-07T07:11:21;4.20;99.90
18868;DHT22;9563;49.240;9.088;2022-12-07T07:13:48;4.20;99.90
18868;DHT22;9563;49.240;9.088;2022-12-07T07:16:14;4.10;99.90
18868;DHT22;9563;49.240;9.088;2022-12-07T07:18:41;4.20;99.90
18868;DHT22;9563;49.240;9.088;2022-12-07T07:21:08;4.20;99.90
18868;DHT22;9563;49.240;9.088;2022-12-07T07:23:36;4.30;99.90
18868;DHT22;9563;49.240;9.088;2022-12-07T07:26:04;4.40;99.90
18868;DHT22;9563;49.240;9.088;2022-12-07T07:28:30;4.40;99.90
18868;DHT22;9563;49.240;9.088;2022-12-07T07:30:57;4.40;99.90
18868;DHT22;9563;49.240;9.088;2022-12-07T07:33:24;4.20;99.90
18868;DHT22;9563;49.240;9.088;2022-12-07T07:35:51;4.20;99.90
18868;DHT22;9563;49.240;9.088;2022-12-07T07:38:18;4.10;99.90
18868;DHT22;9563;49.240;9.088;2022-12-07T07:40:47;3.90;99.90
18868;DHT22;9563;49.240;9.088;2022-12-07T07:43:14;3.60;99.90
18868;DHT22;9563;49.240;9.088;2022-12-07T07:45:41;3.50;99.90
18868;DHT22;9563;49.240;9.088;2022-12-07T07:48:08;3.40;99.90
18868;DHT22;9563;49.240;9.088;2022-12-07T07:50:35;3.40;99.90
18868;DHT22;9563;49.240;9.088;2022-12-07T07:53:02;3.40;99.90
18868;DHT22;9563;49.240;9.088;2022-12-07T07:55:29;3.40;99.90
18868;DHT22;9563;49.240;9.088;2022-12-07T07:57:57;3.60;99.90
18868;DHT22;9563;49.240;9.088;2022-12-07T08:00:24;3.70;99.90
18868;DHT22;9563;49.240;9.088;2022-12-07T08:02:51;3.80;99.90
18868;DHT22;9563;49.240;9.088;2022-12-07T08:05:18;3.90;99.90
18868;DHT22;9563;49.240;9.088;2022-12-07T08:07:45;4.00;99.90
18868;DHT22;9563;49.240;9.088;2022-12-07T08:10:13;4.10;99.90
18868;DHT22;9563;49.240;9.088;2022-12-07T08:12:42;4.10;99.90
18868;DHT22;9563;49.240;9.088;2022-12-07T08:15:25;4.10;99.90
18868;DHT22;9563;49.240;9.088;2022-12-07T08:17:52;4.20;99.90
18868;DHT22;9563;49.240;9.088;2022-12-07T08:20:19;4.20;99.90
18868;DHT22;9563;49.240;9.088;2022-12-07T08:22:46;4.10;99.90
18868;DHT22;9563;49.240;9.088;2022-12-07T08:25:13;4.10;99.90
18868;DHT22;9563;49.240;9.088;2022-12-07T08:27:40;4.10;99.90
18868;DHT22;9563;49.240;9.088;2022-12-07T08:30:07;4.10;99.90
18868;DHT22;9563;49.240;9.088;2022-12-07T08:32:35;4.10;99.90
18868;DHT22;9563;49.240;9.088;2022-12-07T08:35:03;4.00;99.90
18868;DHT22;9563;49.240;9.088;2022-12-07T08:37:31;4.10;99.90
18868;DHT22;9563;49.240;9.088;2022-12-07T08:39:58;4.10;99.90
18868;DHT22;9563;49.240;9.088;2022-12-07T08:42:26;4.20;99.90
18868;DHT22;9563;49.240;9.088;2022-12-07T08:44:55;4.30;99.90
18868;DHT22;9563;49.240;9.088;2022-12-07T08:47:24;4.30;99.90
18868;DHT22;9563;49.240;9.088;2022-12-07T08:49:53;4.20;99.90
18868;DHT22;9563;49.240;9.088;2022-12-07T08:52:21;4.10;99.90
18868;DHT22;9563;49.240;9.088;2022-12-07T08:54:48;4.10;99.90
18868;DHT22;9563;49.240;9.088;2022-12-07T08:57:15;4.10;99.90
18868;DHT22;9563;49.240;9.088;2022-12-07T08:59:42;4.00;99.90
18868;DHT22;9563;49.240;9.088;2022-12-07T09:02:09;4.00;99.90
18868;DHT22;9563;49.240;9.088;2022-12-07T09:04:36;4.00;99.90
18868;DHT22;9563;49.240;9.088;2022-12-07T09:07:05;4.20;99.90
18868;DHT22;9563;49.240;9.088;2022-12-07T09:09:33;4.30;99.90
18868;DHT22;9563;49.240;9.088;2022-12-07T09:11:59;4.40;99.90
18868;DHT22;9563;49.240;9.088;2022-12-07T09:14:26;4.60;99.90
18868;DHT22;9563;49.240;9.088;2022-12-07T09:16:53;4.60;99.90
18868;DHT22;9563;49.240;9.088;2022-12-07T09:19:20;4.70;99.90
18868;DHT22;9563;49.240;9.088;2022-12-07T09:21:47;4.70;99.90
18868;DHT22;9563;49.240;9.088;2022-12-07T09:24:16;4.70;99.90
18868;DHT22;9563;49.240;9.088;2022-12-07T09:26:43;4.90;99.90
18868;DHT22;9563;49.240;9.088;2022-12-07T09:29:10;5.20;99.90
18868;DHT22;9563;49.240;9.088;2022-12-07T09:31:37;5.50;99.90
18868;DHT22;9563;49.240;9.088;2022-12-07T09:34:04;5.60;99.90
18868;DHT22;9563;49.240;9.088;2022-12-07T09:36:33;5.40;99.90
18868;DHT22;9563;49.240;9.088;2022-12-07T09:39:00;5.10;99.90
18868;DHT22;9563;49.240;9.088;2022-12-07T09:41:30;4.90;99.90
18868;DHT22;9563;49.240;9.088;2022-12-07T09:44:03;4.80;99.90
18868;DHT22;9563;49.240;9.088;2022-12-07T09:46:35;4.70;99.90
18868;DHT22;9563;49.240;9.088;2022-12-07T09:49:03;4.80;99.90
18868;DHT22;9563;49.240;9.088;2022-12-07T09:51:31;4.70;99.90
18868;DHT22;9563;49.240;9.088;2022-12-07T09:53:59;4.60;99.90
18868;DHT22;9563;49.240;9.088;2022-12-07T09:56:30;4.70;99.90
18868;DHT22;9563;49.240;9.088;2022-12-07T09:58:59;4.60;99.90
18868;DHT22;9563;49.240;9.088;2022-12-07T10:01:29;4.60;99.90
18868;DHT22;9563;49.240;9.088;2022-12-07T10:04:05;4.70;99.90
18868;DHT22;9563;49.240;9.088;2022-12-07T10:06:32;4.70;99.90
18868;DHT22;9563;49.240;9.088;2022-12-07T10:08:59;4.80;99.90
18868;DHT22;9563;49.240;9.088;2022-12-07T10:11:26;4.80;99.90
18868;DHT22;9563;49.240;9.088;2022-12-07T10:13:54;4.80;99.90
18868;DHT22;9563;49.240;9.088;2022-12-07T10:16:38;4.80;99.90
18868;DHT22;9563;49.240;9.088;2022-12-07T10:19:22;4.80;99.90
18868;DHT22;9563;49.240;9.088;2022-12-07T10:22:10;4.70;99.90
18868;DHT22;9563;49.240;9.088;2022-12-07T10:24:37;4.80;99.90
18868;DHT22;9563;49.240;9.088;2022-12-07T10:27:17;4.80;99.90
18868;DHT22;9563;49.240;9.088;2022-12-07T10:29:50;4.90;99.90
18868;DHT22;9563;49.240;9.088;2022-12-07T10:32:32;5.00;99.90
18868;DHT22;9563;49.240;9.088;2022-12-07T10:35:23;5.10;99.90
18868;DHT22;9563;49.240;9.088;2022-12-07T10:37:52;5.10;99.90
18868;DHT22;9563;49.240;9.088;2022-12-07T10:40:31;5.10;99.90
18868;DHT22;9563;49.240;9.088;2022-12-07T10:43:17;4.90;99.90
18868;DHT22;9563;49.240;9.088;2022-12-07T10:46:10;4.80;99.90
18868;DHT22;9563;49.240;9.088;2022-12-07T10:48:48;4.70;99.90
18868;DHT22;9563;49.240;9.088;2022-12-07T10:51:22;4.60;99.90
18868;DHT22;9563;49.240;9.088;2022-12-07T10:54:02;4.50;99.90
18868;DHT22;9563;49.240;9.088;2022-12-07T10:56:49;4.40;99.90
18868;DHT22;9563;49.240;9.088;2022-12-07T11:02:16;4.50;99.90
18868;DHT22;9563;49.240;9.088;2022-12-07T11:04:58;4.50;99.90
18868;DHT22;9563;49.240;9.088;2022-12-07T11:07:37;4.50;99.90
18868;DHT22;9563;49.240;9.088;2022-12-07T11:10:10;4.60;99.90
18868;DHT22;9563;49.240;9.088;2022-12-07T11:12:50;4.70;99.90
18868;DHT22;9563;49.240;9.088;2022-12-07T11:15:25;4.70;99.90
18868;DHT22;9563;49.240;9.088;2022-12-07T11:18:00;4.60;99.90
18868;DHT22;9563;49.240;9.088;2022-12-07T11:20:40;4.60;99.90
18868;DHT22;9563;49.240;9.088;2022-12-07T11:23:16;4.60;99.90
18868;DHT22;9563;49.240;9.088;2022-12-07T11:25:52;4.60;99.90
18868;DHT22;9563;49.240;9.088;2022-12-07T11:28:29;4.60;99.90
18868;DHT22;9563;49.240;9.088;2022-12-07T11:31:07;4.60;99.90
18868;DHT22;9563;49.240;9.088;2022-12-07T11:33:44;4.60;99.90
18868;DHT22;9563;49.240;9.088;2022-12-07T11:36:24;4.70;99.90
18868;DHT22;9563;49.240;9.088;2022-12-07T11:38:56;4.80;99.90
18868;DHT22;9563;49.240;9.088;2022-12-07T11:41:28;4.90;99.90
18868;DHT22;9563;49.240;9.088;2022-12-07T11:43:59;5.00;99.90
18868;DHT22;9563;49.240;9.088;2022-12-07T11:46:39;5.10;99.90
18868;DHT22;9563;49.240;9.088;2022-12-07T11:49:15;5.20;99.90
18868;DHT22;9563;49.240;9.088;2022-12-07T11:51:48;5.30;99.90
18868;DHT22;9563;49.240;9.088;2022-12-07T11:54:21;5.30;99.90
18868;DHT22;9563;49.240;9.088;2022-12-07T11:56:50;5.30;99.90
18868;DHT22;9563;49.240;9.088;2022-12-07T11:59:23;5.20;99.90
18868;DHT22;9563;49.240;9.088;2022-12-07T12:01:55;5.20;99.90
18868;DHT22;9563;49.240;9.088;2022-12-07T12:04:30;5.30;99.90
18868;DHT22;9563;49.240;9.088;2022-12-07T12:06:58;5.20;99.90
18868;DHT22;9563;49.240;9.088;2022-12-07T12:09:29;5.10;99.90
18868;DHT22;9563;49.240;9.088;2022-12-07T12:12:13;5.10;99.90
18868;DHT22;9563;49.240;9.088;2022-12-07T12:14:50;5.10;99.90
18868;DHT22;9563;49.240;9.088;2022-12-07T12:20:25;5.10;99.90
18868;DHT22;9563;49.240;9.088;2022-12-07T12:22:56;5.20;99.90
18868;DHT22;9563;49.240;9.088;2022-12-07T12:25:26;5.30;99.90
18868;DHT22;9563;49.240;9.088;2022-12-07T12:27:56;5.60;99.90
18868;DHT22;9563;49.240;9.088;2022-12-07T12:30:32;5.80;99.90
18868;DHT22;9563;49.240;9.088;2022-12-07T12:33:06;6.00;99.90
18868;DHT22;9563;49.240;9.088;2022-12-07T12:35:41;6.00;99.90
18868;DHT22;9563;49.240;9.088;2022-12-07T12:38:27;6.00;99.90
18868;DHT22;9563;49.240;9.088;2022-12-07T12:40:55;6.00;99.90
18868;DHT22;9563;49.240;9.088;2022-12-07T12:43:56;6.00;99.90
18868;DHT22;9563;49.240;9.088;2022-12-07T12:46:37;5.90;99.90
18868;DHT22;9563;49.240;9.088;2022-12-07T12:49:35;5.90;99.90
18868;DHT22;9563;49.240;9.088;2022-12-07T12:55:15;5.90;99.90
18868;DHT22;9563;49.240;9.088;2022-12-07T12:57:47;5.80;99.90
18868;DHT22;9563;49.240;9.088;2022-12-07T13:00:18;5.80;99.90
18868;DHT22;9563;49.240;9.088;2022-12-07T13:02:49;5.80;99.90
18868;DHT22;9563;49.240;9.088;2022-12-07T13:05:19;5.80;99.90
18868;DHT22;9563;49.240;9.088;2022-12-07T13:08:14;5.70;99.90
18868;DHT22;9563;49.240;9.088;2022-12-07T13:10:45;5.60;99.90
18868;DHT22;9563;49.240;9.088;2022-12-07T13:13:33;5.60;99.90
18868;DHT22;9563;49.240;9.088;2022-12-07T13:25:12;5.40;99.90
18868;DHT22;9563;49.240;9.088;2022-12-07T13:27:41;5.30;99.90
18868;DHT22;9563;49.240;9.088;2022-12-07T13:30:14;5.10;99.90
18868;DHT22;9563;49.240;9.088;2022-12-07T13:32:43;5.10;99.90
18868;DHT22;9563;49.240;9.088;2022-12-07T13:35:31;5.00;99.90
18868;DHT22;9563;49.240;9.088;2022-12-07T13:38:02;4.90;99.90
18868;DHT22;9563;49.240;9.088;2022-12-07T13:40:30;4.90;99.90
18868;DHT22;9563;49.240;9.088;2022-12-07T13:42:58;4.80;99.90
18868;DHT22;9563;49.240;9.088;2022-12-07T13:45:28;4.80;99.90
18868;DHT22;9563;49.240;9.088;2022-12-07T13:48:12;4.80;99.90
18868;DHT22;9563;49.240;9.088;2022-12-07T13:50:40;4.80;99.90
18868;DHT22;9563;49.240;9.088;2022-12-07T13:53:12;4.80;99.90
18868;DHT22;9563;49.240;9.088;2022-12-07T13:55:46;4.70;99.90
18868;DHT22;9563;49.240;9.088;2022-12-07T13:58:14;4.70;99.90
18868;DHT22;9563;49.240;9.088;2022-12-07T14:00:41;4.70;99.90
18868;DHT22;9563;49.240;9.088;2022-12-07T14:03:31;4.70;99.90
18868;DHT22;9563;49.240;9.088;2022-12-07T14:06:13;4.70;99.90
18868;DHT22;9563;49.240;9.088;2022-12-07T14:08:42;4.70;99.90
18868;DHT22;9563;49.240;9.088;2022-12-07T14:11:14;4.70;99.90
18868;DHT22;9563;49.240;9.088;2022-12-07T14:13:50;4.60;99.90
18868;DHT22;9563;49.240;9.088;2022-12-07T14:16:24;4.60;99.90
18868;DHT22;9563;49.240;9.088;2022-12-07T14:18:53;4.60;99.90
18868;DHT22;9563;49.240;9.088;2022-12-07T14:21:22;4.50;99.90
18868;DHT22;9563;49.240;9.088;2022-12-07T14:24:07;4.50;99.90
18868;DHT22;9563;49.240;9.088;2022-12-07T14:26:37;4.50;99.90
18868;DHT22;9563;49.240;9.088;2022-12-07T14:29:31;4.50;99.90
18868;DHT22;9563;49.240;9.088;2022-12-07T14:32:18;4.60;99.90
18868;DHT22;9563;49.240;9.088;2022-12-07T14:34:56;4.60;99.90
18868;DHT22;9563;49.240;9.088;2022-12-07T14:37:23;4.60;99.90
18868;DHT22;9563;49.240;9.088;2022-12-07T14:39:50;4.60;99.90
18868;DHT22;9563;49.240;9.088;2022-12-07T14:42:20;4.50;99.90
18868;DHT22;9563;49.240;9.088;2022-12-07T14:44:49;4.50;99.90
18868;DHT22;9563;49.240;9.088;2022-12-07T14:47:16;4.50;99.90
18868;DHT22;9563;49.240;9.088;2022-12-07T14:49:43;4.40;99.90
18868;DHT22;9563;49.240;9.088;2022-12-07T14:52:14;4.40;99.90
18868;DHT22;9563;49.240;9.088;2022-12-07T14:54:42;4.40;99.90
18868;DHT22;9563;49.240;9.088;2022-12-07T14:57:09;4.40;99.90
18868;DHT22;9563;49.240;9.088;2022-12-07T14:59:38;4.40;99.90
18868;DHT22;9563;49.240;9.088;2022-12-07T15:02:06;4.40;99.90
18868;DHT22;9563;49.240;9.088;2022-12-07T15:04:33;4.50;99.90
18868;DHT22;9563;49.240;9.088;2022-12-07T15:07:01;4.40;99.90
18868;DHT22;9563;49.240;9.088;2022-12-07T15:09:29;4.40;99.90
18868;DHT22;9563;49.240;9.088;2022-12-07T15:11:56;4.40;99.90
18868;DHT22;9563;49.240;9.088;2022-12-07T15:14:23;4.40;99.90
18868;DHT22;9563;49.240;9.088;2022-12-07T15:16:51;4.40;99.90
18868;DHT22;9563;49.240;9.088;2022-12-07T15:19:20;4.30;99.90
18868;DHT22;9563;49.240;9.088;2022-12-07T15:21:49;4.40;99.90
18868;DHT22;9563;49.240;9.088;2022-12-07T15:24:16;4.40;99.90
18868;DHT22;9563;49.240;9.088;2022-12-07T15:26:43;4.40;99.90
18868;DHT22;9563;49.240;9.088;2022-12-07T15:29:10;4.30;99.90
18868;DHT22;9563;49.240;9.088;2022-12-07T15:31:40;4.30;99.90
18868;DHT22;9563;49.240;9.088;2022-12-07T15:34:08;4.30;99.90
18868;DHT22;9563;49.240;9.088;2022-12-07T15:36:35;4.20;99.90
18868;DHT22;9563;49.240;9.088;2022-12-07T15:39:03;4.20;99.90
18868;DHT22;9563;49.240;9.088;2022-12-07T15:41:30;4.10;99.90
18868;DHT22;9563;49.240;9.088;2022-12-07T15:43:57;4.10;99.90
18868;DHT22;9563;49.240;9.088;2022-12-07T15:46:41;4.10;99.90
18868;DHT22;9563;49.240;9.088;2022-12-07T15:49:12;4.10;99.90
18868;DHT22;9563;49.240;9.088;2022-12-07T15:51:41;4.10;99.90
18868;DHT22;9563;49.240;9.088;2022-12-07T15:54:12;4.10;99.90
18868;DHT22;9563;49.240;9.088;2022-12-07T15:56:39;4.10;99.90
18868;DHT22;9563;49.240;9.088;2022-12-07T15:59:06;4.10;99.90
18868;DHT22;9563;49.240;9.088;2022-12-07T16:01:33;4.10;99.90
18868;DHT22;9563;49.240;9.088;2022-12-07T16:04:00;4.10;99.90
18868;DHT22;9563;49.240;9.088;2022-12-07T16:06:28;4.00;99.90
18868;DHT22;9563;49.240;9.088;2022-12-07T16:08:55;4.10;99.90
18868;DHT22;9563;49.240;9.088;2022-12-07T16:11:22;4.00;99.90
18868;DHT22;9563;49.240;9.088;2022-12-07T16:13:49;4.10;99.90
18868;DHT22;9563;49.240;9.088;2022-12-07T16:16:18;4.10;99.90
18868;DHT22;9563;49.240;9.088;2022-12-07T16:18:46;4.10;99.90
18868;DHT22;9563;49.240;9.088;2022-12-07T16:21:14;4.10;99.90
18868;DHT22;9563;49.240;9.088;2022-12-07T16:23:43;4.10;99.90
18868;DHT22;9563;49.240;9.088;2022-12-07T16:26:12;4.00;99.90
18868;DHT22;9563;49.240;9.088;2022-12-07T16:28:39;4.00;99.90
18868;DHT22;9563;49.240;9.088;2022-12-07T16:31:09;4.10;99.90
18868;DHT22;9563;49.240;9.088;2022-12-07T16:33:38;4.10;99.90
18868;DHT22;9563;49.240;9.088;2022-12-07T16:36:07;4.10;99.90
18868;DHT22;9563;49.240;9.088;2022-12-07T16:38:35;4.10;99.90
18868;DHT22;9563;49.240;9.088;2022-12-07T16:41:04;4.10;99.90